Amherst, South Dakota
Current Conditions -  °F | °C
As of 9:53 AM on Friday 24 Oct 2014 (Local Time) from KABR Reporting Station
Clear Clear  
Wind Chill: 46°   Ceiling: Unl
Heat Index: 46°   Visibility: 10mi
Dew Point: 41°   Wind: 3mph
Humidity: 83%   Direction: 240°WSW
Pressure: 29.87"   Gusts: NA
Location:  45.74°N, 97.92°W
Report Text: KABR 241453Z AUTO 24003KT 10SM CLR 08/05 A2987 RMK AO2 SLP122 T00780050 53009
Loading
Personal Weather Stations






























Interactive Weather Map
Tropical Storm Tracking
New forecast layout! Learn more

10-Day Weather Forecast

Advertisements
Track Severe Weather on mobile